Perry County Municipal, IN

11:27 PM CDT on September 01, 2014 (GMT -0500)
RMR - Owensboro | Change Station
CLOSE
Current Station
Personal Weather Station
Location: Owensboro, KY
Elevation: 387 ft
Nearby Weather Stations

Elev 387 ft 37.83 °N, 87.02 °W | Updated 2 minutes ago

Mostly Cloudy
Mostly Cloudy
77.9 °F
Feels Like 80 °F
N
0.0
Wind Variable Wind from SSW
Gusts 0.0 mph

Today
High -- | Low -- °F
--% Chance of Precip.
Yesterday
High -- | Low -- °F
Precip. -- in
6:16 AM 7:16 PM
Waxing Crescent, 47% visible
Pressure 30.24 in
Visibility 10.0 miles
Clouds Clear
Heat Index 80 °F
Dew Point 74 °F
Humidity 86%
Rainfall 0.00 in
Snow Depth Not available.
UV 0 out of 12
Pollen 11.00 out of 12
Air Quality Not available.
Flu Activity Not available.
METAR KOWB 020256Z 00000KT 10SM CLR 24/23 A9997

More Conditions Fewer Conditions

Pressure 30.24 in
Visibility 10.0 miles
Clouds Clear
Heat Index 80 °F
Dew Point 74 °F
Humidity 86%
Rainfall 0.00 in
Snow Depth Not available.
UV 0 out of 12
Pollen 11.00 out of 12
Air Quality Not available.
Flu Activity Not available.
METAR KOWB 020256Z 00000KT 10SM CLR 24/23 A9997

More Conditions Fewer Conditions

10-Day Weather Forecast

Almanac

Astronomy

Sep. 01, 2014 Rise Set
Actual Time 6:16 AM CDT 7:16 PM CDT
Civil Twilight 5:49 AM CDT 7:43 PM CDT
Nautical Twilight 5:17 AM CDT 8:15 PM CDT
Astronomical Twilight 4:44 AM CDT 8:48 PM CDT
Moon 12:55 PM CDT (9/1) 11:23 PM CDT (9/1)
Length of Visible Light 13h 53m
Length of Day
12h 59m
Tomorrow will be 2m 21s shorter.
Waxing Crescent, 47% of the Moon is Illuminated
Sep 2
Waxing Crescent
Sep 2
First Quarter
Sep 8
Full
Sep 15
Last Quarter
Sep 24
New

Today's Extremes

State Highs State Lows

Community

WunderPhotos

Upload Photos

1,749,560 photos uploaded!

WunderBlogs® & News

Nearby

Snow Depth

Station Depth Elevation
No new snow has been reported.

Earthquake Activity

City Distance Mag. Time & Date
No recent earthquake activity has been reported nearby.
Minimum magnitude displayed is 2.5.

Coastal Water Temperatures

Place Temperature
No Stations Reporting

Nearby Weather Stations